createdAt,value
2023-04-18T00:01:23.476Z,8.80
2023-04-18T00:03:50.991Z,9.63
2023-04-18T00:06:17.886Z,9.80
2023-04-18T00:08:44.820Z,9.13
2023-04-18T00:11:11.347Z,11.10
2023-04-18T00:13:39.368Z,9.47
2023-04-18T00:16:07.714Z,8.57
2023-04-18T00:18:34.520Z,9.90
2023-04-18T00:21:01.995Z,8.13
2023-04-18T00:23:30.167Z,8.13
2023-04-18T00:25:56.748Z,8.70
2023-04-18T00:28:23.229Z,8.27
2023-04-18T00:30:49.804Z,8.13
2023-04-18T00:33:16.660Z,8.40
2023-04-18T00:35:43.213Z,7.53
2023-04-18T00:38:10.171Z,8.07
2023-04-18T00:40:37.737Z,7.97
2023-04-18T00:43:04.304Z,7.23
2023-04-18T00:45:31.018Z,10.97
2023-04-18T00:47:57.562Z,8.43
2023-04-18T00:50:24.434Z,7.60
2023-04-18T00:52:51.988Z,7.80
2023-04-18T00:55:18.936Z,8.00
2023-04-18T00:57:45.943Z,8.33
2023-04-18T01:00:13.050Z,7.70
2023-04-18T01:02:39.988Z,7.23
2023-04-18T01:05:07.920Z,8.37
2023-04-18T01:07:37.265Z,8.27
2023-04-18T01:10:04.341Z,7.37
2023-04-18T01:12:31.308Z,6.90
2023-04-18T01:14:58.780Z,6.87
2023-04-18T01:17:28.259Z,8.20
2023-04-18T01:19:54.870Z,7.07
2023-04-18T01:22:21.358Z,7.63
2023-04-18T01:24:47.835Z,7.30
2023-04-18T01:27:14.465Z,6.73
2023-04-18T01:29:41.031Z,7.80
2023-04-18T01:32:07.610Z,6.10
2023-04-18T01:34:34.174Z,7.43
2023-04-18T01:37:00.780Z,7.57
2023-04-18T01:39:27.993Z,8.80
2023-04-18T01:41:54.476Z,6.13
2023-04-18T01:44:20.943Z,6.80
2023-04-18T01:46:47.483Z,7.10
2023-04-18T01:49:14.043Z,7.83
2023-04-18T01:51:42.121Z,7.53
2023-04-18T01:54:08.666Z,6.87
2023-04-18T01:56:35.239Z,6.97
2023-04-18T01:59:01.838Z,7.00
2023-04-18T02:01:28.364Z,7.27
2023-04-18T02:03:55.010Z,6.47
2023-04-18T02:06:21.693Z,7.03
2023-04-18T02:08:48.170Z,5.97
2023-04-18T02:11:14.698Z,7.87
2023-04-18T02:13:41.250Z,7.47
2023-04-18T02:16:12.724Z,8.40
2023-04-18T02:18:39.394Z,6.87
2023-04-18T02:21:06.485Z,7.07
2023-04-18T02:23:32.952Z,6.77
2023-04-18T02:25:59.497Z,7.00
2023-04-18T02:28:25.962Z,7.70
2023-04-18T02:30:52.940Z,7.70
2023-04-18T02:33:19.607Z,6.83
2023-04-18T02:35:46.227Z,7.00
2023-04-18T02:38:13.771Z,6.57
2023-04-18T02:40:40.423Z,7.90
2023-04-18T02:43:06.886Z,7.90
2023-04-18T02:45:33.584Z,7.83
2023-04-18T02:48:00.264Z,7.47
2023-04-18T02:50:27.203Z,7.77
2023-04-18T02:52:53.714Z,8.87
2023-04-18T02:55:21.871Z,9.67
2023-04-18T02:57:48.383Z,9.70
2023-04-18T03:00:15.051Z,8.97
2023-04-18T03:02:41.900Z,9.73
2023-04-18T03:05:08.710Z,9.10
2023-04-18T03:07:35.381Z,8.97
2023-04-18T03:10:01.986Z,8.80
2023-04-18T03:12:28.519Z,8.57
2023-04-18T03:14:55.011Z,8.60
2023-04-18T03:17:21.517Z,9.13
2023-04-18T03:19:48.448Z,10.30
2023-04-18T03:22:15.693Z,9.30
2023-04-18T03:24:42.262Z,11.43
2023-04-18T03:27:08.772Z,9.10
2023-04-18T03:29:35.528Z,9.83
2023-04-18T03:32:02.042Z,9.70
2023-04-18T03:34:29.262Z,10.57
2023-04-18T03:36:56.007Z,10.60
2023-04-18T03:39:22.515Z,10.00
2023-04-18T03:41:49.785Z,10.80
2023-04-18T03:44:16.610Z,10.77
2023-04-18T03:46:43.510Z,13.97
2023-04-18T03:49:10.308Z,10.40
2023-04-18T03:51:43.508Z,10.47
2023-04-18T03:54:10.111Z,10.27
2023-04-18T03:56:36.714Z,12.50
2023-04-18T03:59:03.173Z,12.17
2023-04-18T04:01:29.797Z,11.03
2023-04-18T04:03:56.736Z,11.23
2023-04-18T04:06:23.389Z,10.90
2023-04-18T04:08:50.224Z,10.80
2023-04-18T04:11:17.595Z,10.80
2023-04-18T04:13:44.155Z,9.90
2023-04-18T04:16:10.685Z,11.30
2023-04-18T04:18:37.191Z,10.27
2023-04-18T04:21:03.920Z,11.30
2023-04-18T04:23:30.484Z,10.63
2023-04-18T04:25:58.617Z,11.53
2023-04-18T04:28:26.172Z,10.97
2023-04-18T04:30:53.141Z,10.57
2023-04-18T04:33:20.204Z,10.17
2023-04-18T04:35:47.510Z,11.87
2023-04-18T04:38:19.957Z,9.70
2023-04-18T04:40:46.432Z,11.93
2023-04-18T04:43:15.602Z,12.47
2023-04-18T04:45:43.527Z,10.83
2023-04-18T04:48:11.094Z,11.17
2023-04-18T04:50:38.733Z,11.47
2023-04-18T04:53:06.390Z,10.50
2023-04-18T04:55:33.524Z,10.47
2023-04-18T04:58:00.415Z,10.53
2023-04-18T05:00:27.108Z,9.83
2023-04-18T05:02:55.666Z,11.57
2023-04-18T05:05:22.273Z,10.07
2023-04-18T05:07:48.764Z,10.30
2023-04-18T05:10:15.466Z,10.47
2023-04-18T05:12:41.984Z,10.87
2023-04-18T05:15:08.769Z,10.07
2023-04-18T05:17:35.480Z,14.43
2023-04-18T05:20:02.116Z,10.53
2023-04-18T05:22:28.684Z,9.73
2023-04-18T05:24:55.261Z,10.63
2023-04-18T05:27:21.830Z,11.53
2023-04-18T05:29:50.185Z,11.07
2023-04-18T05:32:16.836Z,11.70
2023-04-18T05:34:43.362Z,10.53
2023-04-18T05:37:09.988Z,11.27
2023-04-18T05:39:36.610Z,11.40
2023-04-18T05:42:03.333Z,11.40
2023-04-18T05:44:30.159Z,12.20
2023-04-18T05:46:56.661Z,11.47
2023-04-18T05:49:23.671Z,11.83
2023-04-18T05:51:50.569Z,11.90
2023-04-18T05:54:17.210Z,12.83
2023-04-18T05:56:43.917Z,14.40
2023-04-18T05:59:10.786Z,12.37
2023-04-18T06:01:37.253Z,13.73
2023-04-18T06:04:04.003Z,13.30
2023-04-18T06:06:31.466Z,13.93
2023-04-18T06:08:58.010Z,12.70
2023-04-18T06:11:24.504Z,14.13
2023-04-18T06:13:51.206Z,13.93
2023-04-18T06:16:18.074Z,15.20
2023-04-18T06:18:44.619Z,13.20
2023-04-18T06:21:11.169Z,17.53
2023-04-18T06:23:38.504Z,14.07
2023-04-18T06:26:06.054Z,14.53
2023-04-18T06:28:32.741Z,15.33
2023-04-18T06:30:59.282Z,14.27
2023-04-18T06:33:26.020Z,17.77
2023-04-18T06:35:52.779Z,15.73
2023-04-18T06:38:19.281Z,18.20
2023-04-18T06:40:45.735Z,15.67
2023-04-18T06:43:12.177Z,16.57
2023-04-18T06:45:38.986Z,16.37
2023-04-18T06:48:06.110Z,16.07
2023-04-18T06:50:32.665Z,16.60
2023-04-18T06:52:59.134Z,18.17
2023-04-18T06:55:25.663Z,15.77
2023-04-18T06:57:52.295Z,16.20
2023-04-18T07:00:19.047Z,21.07
2023-04-18T07:02:45.627Z,17.80
2023-04-18T07:05:12.455Z,14.77
2023-04-18T07:07:39.098Z,16.73
2023-04-18T07:10:06.751Z,18.60
2023-04-18T07:12:33.822Z,19.10
2023-04-18T07:15:00.582Z,15.67
2023-04-18T07:17:27.118Z,15.40
2023-04-18T07:19:53.601Z,16.43
2023-04-18T07:22:20.203Z,15.90
2023-04-18T07:24:46.776Z,14.90
2023-04-18T07:27:13.596Z,16.67
2023-04-18T07:29:40.111Z,15.50
2023-04-18T07:32:08.387Z,15.00
2023-04-18T07:34:36.648Z,13.53
2023-04-18T07:37:03.335Z,12.87
2023-04-18T07:39:31.832Z,12.20
2023-04-18T07:41:58.819Z,14.23
2023-04-18T07:44:25.540Z,13.30
2023-04-18T07:46:52.372Z,12.67
2023-04-18T07:49:19.053Z,14.20
2023-04-18T07:51:45.553Z,12.37
2023-04-18T07:54:12.050Z,15.23
2023-04-18T07:56:38.821Z,12.47
2023-04-18T07:59:05.370Z,13.60
2023-04-18T08:01:31.930Z,14.83
2023-04-18T08:04:01.811Z,13.83
2023-04-18T08:06:29.054Z,15.00
2023-04-18T08:08:55.683Z,15.67
2023-04-18T08:11:23.291Z,15.00
2023-04-18T08:13:49.768Z,15.73
2023-04-18T08:16:17.488Z,14.97
2023-04-18T08:18:44.359Z,21.00
2023-04-18T08:21:10.974Z,15.47
2023-04-18T08:23:37.645Z,18.20
2023-04-18T08:26:04.266Z,18.30
2023-04-18T08:28:30.749Z,18.53
2023-04-18T08:30:57.476Z,15.57
2023-04-18T08:33:24.519Z,14.97
2023-04-18T08:35:51.498Z,18.30
2023-04-18T08:38:18.458Z,18.50
2023-04-18T08:40:45.356Z,17.40
2023-04-18T08:43:14.814Z,16.60
2023-04-18T08:45:45.162Z,20.37
2023-04-18T08:48:16.260Z,17.07
2023-04-18T08:50:43.302Z,21.37
2023-04-18T08:53:10.253Z,16.23
2023-04-18T08:55:37.376Z,18.93
2023-04-18T08:58:07.242Z,15.30
2023-04-18T09:00:34.117Z,15.17
2023-04-18T09:03:03.679Z,16.80
2023-04-18T09:05:30.570Z,17.10
2023-04-18T09:07:57.134Z,16.77
2023-04-18T09:10:31.042Z,15.97
2023-04-18T09:12:59.251Z,17.87
2023-04-18T09:15:27.278Z,15.70
2023-04-18T09:17:56.238Z,15.93
2023-04-18T09:20:34.609Z,17.13
2023-04-18T09:23:14.672Z,18.07
2023-04-18T09:25:44.139Z,17.17
2023-04-18T09:28:28.737Z,15.67
2023-04-18T09:31:14.497Z,17.93
2023-04-18T09:33:52.759Z,16.20
2023-04-18T09:36:22.975Z,18.60
2023-04-18T09:38:52.563Z,17.97
2023-04-18T09:41:22.465Z,22.03
2023-04-18T09:43:49.429Z,17.00
2023-04-18T09:46:17.563Z,20.50
2023-04-18T09:48:44.261Z,16.50
2023-04-18T09:51:14.721Z,16.80
2023-04-18T09:53:44.531Z,18.20
2023-04-18T09:56:27.645Z,15.57
2023-04-18T09:59:09.169Z,22.33
2023-04-18T10:01:36.128Z,18.20
2023-04-18T10:04:04.395Z,18.00
2023-04-18T10:06:33.303Z,20.77
2023-04-18T10:09:00.720Z,17.60
2023-04-18T10:11:27.430Z,18.53
2023-04-18T10:13:56.920Z,17.40
2023-04-18T10:16:24.039Z,19.10
2023-04-18T10:18:53.414Z,21.07
2023-04-18T10:21:21.309Z,21.43
2023-04-18T10:23:49.090Z,19.80
2023-04-18T10:26:16.041Z,26.13
2023-04-18T10:28:49.487Z,19.83
2023-04-18T10:31:16.853Z,21.40
2023-04-18T10:34:03.104Z,18.33
2023-04-18T10:36:30.301Z,19.67
2023-04-18T10:39:05.792Z,19.00
2023-04-18T10:41:33.647Z,24.50
2023-04-18T10:44:15.673Z,20.07
2023-04-18T10:47:08.795Z,23.07
2023-04-18T10:49:38.268Z,20.23
2023-04-18T10:52:08.480Z,26.00
2023-04-18T10:54:51.766Z,23.33
2023-04-18T10:57:18.333Z,19.57
2023-04-18T10:59:48.843Z,18.57
2023-04-18T11:02:32.269Z,20.53
2023-04-18T11:05:06.966Z,19.00
2023-04-18T11:07:34.008Z,17.63
2023-04-18T11:10:01.863Z,20.20
2023-04-18T11:12:34.838Z,16.80
2023-04-18T11:15:08.092Z,18.83
2023-04-18T11:17:35.811Z,18.33
2023-04-18T11:20:11.277Z,18.80
2023-04-18T11:22:55.381Z,17.73
2023-04-18T11:25:40.528Z,20.83
2023-04-18T11:28:07.427Z,19.57
2023-04-18T11:30:41.398Z,17.90
2023-04-18T11:33:12.013Z,20.07
2023-04-18T11:35:43.593Z,18.83
2023-04-18T11:38:13.272Z,18.10
2023-04-18T11:40:47.418Z,17.70
2023-04-18T11:43:20.789Z,21.90
2023-04-18T11:45:59.961Z,18.77
2023-04-18T11:48:43.438Z,18.70
2023-04-18T11:51:36.140Z,17.27
2023-04-18T11:54:02.731Z,18.17
2023-04-18T11:56:29.488Z,20.53
2023-04-18T11:58:56.278Z,18.00
2023-04-18T12:01:24.720Z,18.73
2023-04-18T12:04:08.096Z,17.47
2023-04-18T12:06:51.926Z,17.73
2023-04-18T12:09:19.327Z,18.33
2023-04-18T12:12:03.159Z,18.00
2023-04-18T12:14:30.352Z,19.20
2023-04-18T12:16:56.843Z,19.97
2023-04-18T12:19:28.052Z,19.07
2023-04-18T12:22:03.051Z,20.90
2023-04-18T12:24:29.940Z,16.83
2023-04-18T12:26:58.089Z,16.73
2023-04-18T12:29:25.705Z,18.10
2023-04-18T12:31:52.405Z,18.10
2023-04-18T12:34:19.035Z,18.90
2023-04-18T12:36:46.681Z,19.20
2023-04-18T12:39:13.315Z,18.87
2023-04-18T12:41:39.828Z,17.63
2023-04-18T12:44:06.730Z,18.30
2023-04-18T12:46:33.392Z,18.73
2023-04-18T12:49:00.302Z,19.03
2023-04-18T12:51:28.226Z,18.83
2023-04-18T12:53:54.935Z,18.07
2023-04-18T12:56:21.500Z,18.23
2023-04-18T12:58:48.081Z,17.40
2023-04-18T13:01:15.186Z,16.73
2023-04-18T13:03:42.091Z,17.00
2023-04-18T13:06:08.934Z,17.03
2023-04-18T13:08:35.398Z,16.30
2023-04-18T13:11:02.065Z,16.23
2023-04-18T13:13:28.752Z,15.90
2023-04-18T13:15:55.470Z,17.17
2023-04-18T13:18:22.000Z,16.90
2023-04-18T13:20:49.650Z,16.63
2023-04-18T13:23:17.640Z,17.30
2023-04-18T13:25:44.157Z,17.03
2023-04-18T13:28:10.685Z,19.03
2023-04-18T13:30:37.402Z,17.67
2023-04-18T13:33:04.205Z,19.10
2023-04-18T13:35:30.711Z,17.23
2023-04-18T13:37:57.189Z,17.40
2023-04-18T13:40:24.141Z,16.67
2023-04-18T13:42:51.443Z,18.03
2023-04-18T13:45:18.661Z,18.10
2023-04-18T13:47:45.294Z,16.90
2023-04-18T13:50:12.067Z,16.00
2023-04-18T13:52:38.552Z,16.67
2023-04-18T13:55:05.555Z,16.33
2023-04-18T13:57:33.218Z,16.23
2023-04-18T13:59:59.736Z,16.20
2023-04-18T14:02:26.736Z,16.80
2023-04-18T14:04:54.782Z,16.73
2023-04-18T14:07:21.447Z,15.90
2023-04-18T14:09:48.176Z,17.40
2023-04-18T14:12:14.725Z,16.77
2023-04-18T14:14:42.018Z,16.57
2023-04-18T14:17:08.576Z,17.50
2023-04-18T14:19:35.526Z,16.10
2023-04-18T14:22:02.025Z,16.03
2023-04-18T14:24:28.480Z,18.00
2023-04-18T14:26:54.940Z,16.77
2023-04-18T14:29:21.421Z,16.30
2023-04-18T14:31:48.032Z,17.20
2023-04-18T14:34:14.624Z,17.20
2023-04-18T14:36:41.380Z,17.50
2023-04-18T14:39:08.271Z,16.30
2023-04-18T14:41:34.847Z,17.17
2023-04-18T14:44:01.511Z,15.57
2023-04-18T14:46:28.394Z,17.53
2023-04-18T14:48:55.049Z,16.00
2023-04-18T14:51:21.597Z,15.57
2023-04-18T14:53:48.299Z,15.93
2023-04-18T14:56:16.210Z,16.30
2023-04-18T14:58:43.797Z,14.63
2023-04-18T15:01:10.406Z,15.83
2023-04-18T15:03:37.030Z,14.87
2023-04-18T15:06:03.846Z,15.83
2023-04-18T15:08:32.841Z,16.07
2023-04-18T15:10:59.501Z,14.97
2023-04-18T15:13:25.985Z,15.33
2023-04-18T15:15:53.595Z,15.40
2023-04-18T15:18:20.595Z,16.07
2023-04-18T15:20:47.615Z,14.10
2023-04-18T15:23:14.716Z,15.47
2023-04-18T15:25:42.145Z,16.20
2023-04-18T15:28:08.967Z,14.57
2023-04-18T15:30:35.643Z,14.77
2023-04-18T15:33:02.467Z,15.40
2023-04-18T15:35:29.110Z,16.77
2023-04-18T15:37:57.326Z,15.23
2023-04-18T15:40:23.854Z,15.50
2023-04-18T15:42:51.017Z,15.73
2023-04-18T15:45:17.927Z,16.60
2023-04-18T15:47:44.453Z,14.97
2023-04-18T15:50:11.186Z,15.37
2023-04-18T15:52:38.167Z,15.67
2023-04-18T15:55:05.332Z,16.30
2023-04-18T15:57:31.964Z,16.70
2023-04-18T15:59:59.661Z,17.37
2023-04-18T16:02:26.626Z,16.60
2023-04-18T16:04:53.526Z,16.93
2023-04-18T16:07:20.127Z,16.80
2023-04-18T16:09:46.668Z,17.67
2023-04-18T16:12:13.338Z,16.70
2023-04-18T16:14:39.876Z,15.27
2023-04-18T16:17:06.568Z,16.07
2023-04-18T16:19:35.049Z,18.20
2023-04-18T16:22:03.068Z,16.83
2023-04-18T16:24:30.273Z,16.73
2023-04-18T16:26:56.943Z,18.40
2023-04-18T16:29:23.828Z,17.37
2023-04-18T16:31:51.721Z,18.63
2023-04-18T16:34:18.474Z,15.77
2023-04-18T16:36:44.973Z,17.00
2023-04-18T16:39:12.130Z,18.10
2023-04-18T16:41:38.857Z,18.10
2023-04-18T16:44:05.381Z,15.63
2023-04-18T16:46:32.358Z,17.53
2023-04-18T16:48:59.260Z,16.40
2023-04-18T16:51:26.867Z,16.90
2023-04-18T16:53:53.369Z,17.03
2023-04-18T16:56:19.858Z,17.40
2023-04-18T16:58:46.757Z,16.93
2023-04-18T17:01:13.387Z,15.87
2023-04-18T17:03:40.003Z,16.43
2023-04-18T17:06:06.901Z,16.40
2023-04-18T17:08:34.147Z,15.17
2023-04-18T17:11:02.184Z,20.13
2023-04-18T17:13:31.353Z,17.03
2023-04-18T17:15:58.010Z,16.53
2023-04-18T17:18:24.749Z,17.90
2023-04-18T17:20:52.583Z,18.13
2023-04-18T17:23:19.375Z,17.33
2023-04-18T17:25:46.238Z,17.60
2023-04-18T17:28:13.836Z,16.53
2023-04-18T17:30:44.169Z,17.67
2023-04-18T17:33:10.975Z,16.27
2023-04-18T17:35:41.410Z,16.10
2023-04-18T17:38:08.939Z,16.50
2023-04-18T17:40:35.420Z,16.90
2023-04-18T17:43:01.869Z,16.30
2023-04-18T17:45:28.446Z,16.80
2023-04-18T17:47:57.097Z,16.33
2023-04-18T17:50:23.617Z,16.73
2023-04-18T17:52:50.360Z,16.63
2023-04-18T17:55:16.847Z,17.13
2023-04-18T17:57:43.332Z,15.20
2023-04-18T18:00:11.830Z,15.57
2023-04-18T18:02:38.579Z,15.47
2023-04-18T18:05:05.590Z,16.10
2023-04-18T18:07:34.813Z,15.37
2023-04-18T18:10:01.864Z,16.20
2023-04-18T18:12:28.323Z,14.97
2023-04-18T18:14:57.055Z,18.03
2023-04-18T18:17:23.760Z,16.87
2023-04-18T18:19:50.529Z,18.00
2023-04-18T18:22:17.749Z,16.90
2023-04-18T18:24:44.266Z,17.13
2023-04-18T18:27:10.858Z,17.10
2023-04-18T18:29:37.392Z,18.97
2023-04-18T18:32:03.968Z,16.90
2023-04-18T18:34:31.988Z,17.23
2023-04-18T18:36:58.667Z,18.57
2023-04-18T18:39:25.144Z,18.00
2023-04-18T18:41:52.357Z,17.50
2023-04-18T18:44:18.805Z,17.10
2023-04-18T18:46:45.434Z,15.63
2023-04-18T18:49:12.337Z,17.70
2023-04-18T18:51:39.018Z,16.80
2023-04-18T18:54:05.538Z,18.07
2023-04-18T18:56:32.161Z,17.37
2023-04-18T18:58:58.910Z,16.60
2023-04-18T19:01:25.573Z,17.20
2023-04-18T19:03:52.789Z,16.63
2023-04-18T19:06:19.426Z,17.77
2023-04-18T19:08:46.196Z,17.67
2023-04-18T19:11:12.888Z,15.93
2023-04-18T19:13:39.628Z,18.40
2023-04-18T19:16:06.280Z,15.87
2023-04-18T19:18:33.104Z,16.43
2023-04-18T19:20:59.568Z,16.03
2023-04-18T19:23:27.733Z,18.80
2023-04-18T19:25:54.696Z,17.50
2023-04-18T19:28:22.836Z,17.10
2023-04-18T19:30:49.560Z,19.97
2023-04-18T19:33:17.200Z,21.00
2023-04-18T19:35:43.759Z,17.20
2023-04-18T19:38:10.296Z,16.20
2023-04-18T19:40:37.159Z,16.50
2023-04-18T19:43:03.633Z,16.00
2023-04-18T19:45:30.660Z,17.63
2023-04-18T19:47:57.288Z,16.87
2023-04-18T19:50:23.898Z,16.63
2023-04-18T19:52:50.686Z,16.40
2023-04-18T19:55:17.316Z,15.63
2023-04-18T19:57:43.923Z,17.17
2023-04-18T20:00:12.700Z,17.50
2023-04-18T20:02:40.320Z,14.77
2023-04-18T20:05:08.492Z,18.20
2023-04-18T20:07:35.913Z,16.77
2023-04-18T20:10:02.427Z,17.33
2023-04-18T20:12:29.009Z,18.30
2023-04-18T20:14:55.879Z,15.80
2023-04-18T20:17:22.564Z,16.90
2023-04-18T20:19:49.666Z,17.53
2023-04-18T20:22:16.796Z,16.70
2023-04-18T20:24:44.998Z,15.77
2023-04-18T20:27:11.826Z,15.90
2023-04-18T20:29:38.373Z,16.37
2023-04-18T20:32:05.739Z,16.87
2023-04-18T20:34:32.568Z,18.20
2023-04-18T20:36:59.955Z,16.80
2023-04-18T20:39:27.009Z,16.17
2023-04-18T20:41:54.309Z,15.70
2023-04-18T20:44:21.816Z,16.50
2023-04-18T20:46:48.412Z,15.60
2023-04-18T20:49:15.000Z,17.30
2023-04-18T20:51:41.585Z,15.87
2023-04-18T20:54:08.227Z,15.93
2023-04-18T20:56:36.496Z,15.67
2023-04-18T20:59:04.698Z,15.47
2023-04-18T21:01:31.447Z,16.27
2023-04-18T21:03:58.319Z,15.80
2023-04-18T21:06:24.896Z,15.70
2023-04-18T21:08:51.409Z,16.10
2023-04-18T21:11:18.149Z,14.20
2023-04-18T21:13:44.689Z,15.20
2023-04-18T21:16:11.275Z,14.97
2023-04-18T21:18:37.800Z,16.13
2023-04-18T21:21:04.444Z,13.93
2023-04-18T21:23:31.017Z,15.07
2023-04-18T21:25:57.574Z,15.37
2023-04-18T21:28:24.260Z,16.10
2023-04-18T21:30:50.867Z,15.90
2023-04-18T21:33:19.206Z,14.70
2023-04-18T21:35:45.702Z,14.67
2023-04-18T21:38:12.205Z,15.90
2023-04-18T21:40:38.769Z,14.90
2023-04-18T21:43:05.347Z,15.23
2023-04-18T21:45:32.242Z,16.30
2023-04-18T21:47:58.954Z,16.43
2023-04-18T21:50:25.586Z,18.40
2023-04-18T21:52:52.407Z,16.53
2023-04-18T21:55:18.926Z,18.60
2023-04-18T21:57:45.446Z,15.43
2023-04-18T22:00:12.815Z,16.33
2023-04-18T22:02:39.607Z,15.37
2023-04-18T22:05:07.588Z,18.97
2023-04-18T22:07:43.239Z,16.00
2023-04-18T22:10:13.386Z,16.37
2023-04-18T22:12:40.207Z,16.83
2023-04-18T22:15:07.186Z,17.57
2023-04-18T22:17:34.951Z,24.57
2023-04-18T22:20:01.438Z,17.83
2023-04-18T22:22:27.908Z,18.90
2023-04-18T22:24:54.579Z,16.33
2023-04-18T22:27:21.102Z,15.57
2023-04-18T22:29:47.581Z,18.00
2023-04-18T22:32:14.215Z,17.70
2023-04-18T22:34:40.810Z,17.90
2023-04-18T22:37:07.558Z,17.63
2023-04-18T22:39:34.067Z,16.67
2023-04-18T22:42:00.969Z,16.80
2023-04-18T22:44:27.448Z,18.23
2023-04-18T22:46:56.745Z,16.77
2023-04-18T22:49:23.328Z,16.47
2023-04-18T22:51:54.167Z,18.10
2023-04-18T22:54:20.980Z,20.53
2023-04-18T22:56:49.251Z,20.10
2023-04-18T22:59:15.803Z,17.00
2023-04-18T23:01:42.492Z,20.97
2023-04-18T23:04:09.131Z,19.90
2023-04-18T23:06:36.759Z,16.17
2023-04-18T23:09:06.365Z,17.17
2023-04-18T23:11:32.865Z,15.27
2023-04-18T23:13:59.391Z,17.27
2023-04-18T23:16:25.957Z,30.67
2023-04-18T23:18:52.651Z,17.17
2023-04-18T23:21:19.187Z,17.00
2023-04-18T23:23:45.717Z,23.50
2023-04-18T23:26:16.168Z,17.90
2023-04-18T23:28:42.728Z,17.67
2023-04-18T23:31:09.848Z,24.03
2023-04-18T23:33:36.519Z,17.30
2023-04-18T23:36:03.469Z,17.73
2023-04-18T23:38:30.759Z,18.60
2023-04-18T23:40:57.251Z,15.97
2023-04-18T23:43:23.935Z,16.50
2023-04-18T23:45:50.617Z,22.03
2023-04-18T23:48:17.097Z,16.73
2023-04-18T23:50:52.202Z,16.37
2023-04-18T23:53:19.529Z,16.90
2023-04-18T23:55:47.564Z,17.50
2023-04-18T23:58:14.935Z,15.83
